createdAt,value
2024-03-04T00:02:10.610Z,100783.63
2024-03-04T00:04:40.645Z,100791.06
2024-03-04T00:07:07.407Z,100788.44
2024-03-04T00:09:33.919Z,100792.16
2024-03-04T00:12:00.643Z,100789.50
2024-03-04T00:14:27.759Z,100794.81
2024-03-04T00:16:54.509Z,100784.22
2024-03-04T00:19:21.019Z,100796.22
2024-03-04T00:21:47.706Z,100792.75
2024-03-04T00:24:14.596Z,100797.28
2024-03-04T00:26:44.434Z,100802.09
2024-03-04T00:29:10.838Z,100802.88
2024-03-04T00:31:37.442Z,100799.78
2024-03-04T00:34:05.700Z,100798.22
2024-03-04T00:36:33.558Z,100805.34
2024-03-04T00:39:01.140Z,100813.59
2024-03-04T00:41:28.231Z,100811.72
2024-03-04T00:43:55.077Z,100814.09
2024-03-04T00:46:24.317Z,100807.22
2024-03-04T00:48:52.169Z,100804.56
2024-03-04T00:51:18.809Z,100808.00
2024-03-04T00:53:45.828Z,100808.00
2024-03-04T00:56:14.038Z,100809.88
2024-03-04T00:58:41.392Z,100812.50
2024-03-04T01:01:08.931Z,100810.38
2024-03-04T01:03:36.261Z,100820.97
2024-03-04T01:06:03.711Z,100837.94
2024-03-04T01:08:30.217Z,100838.72
2024-03-04T01:10:57.575Z,100832.13
2024-03-04T01:13:24.458Z,100828.41
2024-03-04T01:15:51.024Z,100835.56
2024-03-04T01:18:21.478Z,100829.81
2024-03-04T01:20:48.159Z,100835.09
2024-03-04T01:23:14.653Z,100830.59
2024-03-04T01:25:41.337Z,100829.03
2024-03-04T01:28:08.073Z,100836.47
2024-03-04T01:30:34.864Z,100842.56
2024-03-04T01:33:03.437Z,100844.13
2024-03-04T01:35:30.211Z,100844.91
2024-03-04T01:37:56.773Z,100836.97
2024-03-04T01:40:23.537Z,100840.41
2024-03-04T01:42:50.052Z,100839.63
2024-03-04T01:45:24.433Z,100846.47
2024-03-04T01:48:03.923Z,100852.56
2024-03-04T01:50:36.687Z,100860.97
2024-03-04T01:53:05.581Z,100861.78
2024-03-04T01:55:36.780Z,100866.75
2024-03-04T01:58:05.432Z,100871.56
2024-03-04T02:00:34.146Z,100873.44
2024-03-04T02:03:01.364Z,100876.56
2024-03-04T02:05:28.044Z,100867.84
2024-03-04T02:07:55.965Z,100880.78
2024-03-04T02:10:23.219Z,100880.47
2024-03-04T02:12:50.361Z,100891.84
2024-03-04T02:15:16.906Z,100893.41
2024-03-04T02:17:43.409Z,100892.34
2024-03-04T02:20:11.685Z,100893.91
2024-03-04T02:22:39.023Z,100891.72
2024-03-04T02:25:07.002Z,100904.66
2024-03-04T02:27:33.879Z,100913.72
2024-03-04T02:30:00.410Z,100910.59
2024-03-04T02:32:28.328Z,100924.13
2024-03-04T02:34:57.084Z,100934.22
2024-03-04T02:37:23.626Z,100929.25
2024-03-04T02:39:50.298Z,100937.50
2024-03-04T02:42:16.750Z,100939.84
2024-03-04T02:44:43.231Z,100942.78
2024-03-04T02:47:09.684Z,100943.38
2024-03-04T02:49:37.119Z,100938.69
2024-03-04T02:52:04.578Z,100945.88
2024-03-04T02:54:32.533Z,100950.97
2024-03-04T02:56:58.997Z,100947.84
2024-03-04T02:59:25.872Z,100953.41
2024-03-04T03:01:52.580Z,100949.97
2024-03-04T03:04:19.367Z,100945.78
2024-03-04T03:06:45.986Z,100949.50
2024-03-04T03:09:13.155Z,100954.03
2024-03-04T03:11:40.494Z,100957.94
2024-03-04T03:14:07.404Z,100958.72
2024-03-04T03:16:33.999Z,100966.66
2024-03-04T03:19:01.255Z,100969.31
2024-03-04T03:21:28.245Z,100969.31
2024-03-04T03:23:55.200Z,100971.16
2024-03-04T03:26:23.974Z,100969.91
2024-03-04T03:28:50.433Z,100966.97
2024-03-04T03:31:20.285Z,100977.56
2024-03-04T03:33:46.856Z,100979.72
2024-03-04T03:36:13.361Z,100982.84
2024-03-04T03:38:40.778Z,100982.53
2024-03-04T03:41:07.358Z,100983.44
2024-03-04T03:43:34.835Z,100986.88
2024-03-04T03:46:02.472Z,100987.66
2024-03-04T03:48:29.532Z,100990.31
2024-03-04T03:50:56.089Z,100989.53
2024-03-04T03:53:24.408Z,100987.16
2024-03-04T03:55:53.157Z,100996.19
2024-03-04T03:58:19.699Z,101000.69
2024-03-04T04:00:46.348Z,100995.22
2024-03-04T04:03:12.994Z,100996.28
2024-03-04T04:05:40.090Z,101005.00
2024-03-04T04:08:06.958Z,101013.25
2024-03-04T04:10:33.423Z,101017.00
2024-03-04T04:12:59.979Z,101003.25
2024-03-04T04:15:29.336Z,101010.41
2024-03-04T04:17:56.411Z,101012.28
2024-03-04T04:20:22.943Z,101020.22
2024-03-04T04:22:49.521Z,101020.72
2024-03-04T04:25:16.306Z,101014.66
2024-03-04T04:27:43.364Z,101015.72
2024-03-04T04:30:10.432Z,101025.25
2024-03-04T04:32:37.079Z,101025.50
2024-03-04T04:35:06.922Z,101029.72
2024-03-04T04:37:33.809Z,101031.91
2024-03-04T04:40:03.229Z,101034.84
2024-03-04T04:42:29.677Z,101029.34
2024-03-04T04:45:00.345Z,101032.00
2024-03-04T04:47:28.304Z,101038.66
2024-03-04T04:49:55.114Z,101032.09
2024-03-04T04:52:22.620Z,101042.69
2024-03-04T04:54:50.217Z,101045.31
2024-03-04T04:57:19.209Z,101047.97
2024-03-04T04:59:45.699Z,101051.41
2024-03-04T05:02:12.503Z,101060.94
2024-03-04T05:04:51.133Z,101066.22
2024-03-04T05:07:23.863Z,101062.28
2024-03-04T05:09:51.187Z,101061.50
2024-03-04T05:12:18.009Z,101065.72
2024-03-04T05:14:47.150Z,101067.59
2024-03-04T05:17:13.607Z,101073.66
2024-03-04T05:19:40.121Z,101074.44
2024-03-04T05:22:08.455Z,101077.38
2024-03-04T05:24:36.159Z,101077.19
2024-03-04T05:27:02.625Z,101080.91
2024-03-04T05:29:29.088Z,101088.84
2024-03-04T05:31:59.929Z,101091.50
2024-03-04T05:34:26.972Z,101093.06
2024-03-04T05:36:53.637Z,101092.28
2024-03-04T05:39:22.293Z,101090.41
2024-03-04T05:41:52.262Z,101092.88
2024-03-04T05:44:21.171Z,101083.66
2024-03-04T05:47:07.983Z,101094.03
2024-03-04T05:49:36.805Z,101105.97
2024-03-04T05:52:03.471Z,101106.59
2024-03-04T05:54:30.137Z,101118.22
2024-03-04T05:56:56.644Z,101115.09
2024-03-04T05:59:23.876Z,101110.88
2024-03-04T06:01:50.369Z,101111.44
2024-03-04T06:04:17.013Z,101114.09
2024-03-04T06:06:43.645Z,101122.81
2024-03-04T06:09:10.149Z,101126.28
2024-03-04T06:11:36.940Z,101131.03
2024-03-04T06:14:03.454Z,101136.94
2024-03-04T06:16:30.512Z,101139.06
2024-03-04T06:18:57.054Z,101142.78
2024-03-04T06:21:23.541Z,101149.94
2024-03-04T06:23:49.970Z,101158.97
2024-03-04T06:26:16.710Z,101165.34
2024-03-04T06:28:43.266Z,101164.53
2024-03-04T06:31:12.733Z,101163.72
2024-03-04T06:33:48.381Z,101167.97
2024-03-04T06:36:22.345Z,101174.59
2024-03-04T06:38:49.520Z,101179.81
2024-03-04T06:41:16.132Z,101177.47
2024-03-04T06:43:43.105Z,101177.19
2024-03-04T06:46:11.926Z,101188.25
2024-03-04T06:48:39.376Z,101180.03
2024-03-04T06:51:06.100Z,101177.88
2024-03-04T06:53:32.582Z,101175.47
2024-03-04T06:56:00.353Z,101172.91
2024-03-04T06:58:26.951Z,101176.72
2024-03-04T07:00:53.583Z,101181.47
2024-03-04T07:03:21.176Z,101182.75
2024-03-04T07:05:49.954Z,101179.03
2024-03-04T07:08:16.441Z,101184.34
2024-03-04T07:10:43.035Z,101180.50
2024-03-04T07:13:09.706Z,101181.66
2024-03-04T07:15:37.360Z,101174.72
2024-03-04T07:18:04.153Z,101172.78
2024-03-04T07:20:30.745Z,101167.66
2024-03-04T07:22:58.050Z,101169.94
2024-03-04T07:25:24.588Z,101169.63
2024-03-04T07:27:51.164Z,101164.16
2024-03-04T07:30:17.867Z,101162.19
2024-03-04T07:32:44.407Z,101165.34
2024-03-04T07:35:11.122Z,101162.91
2024-03-04T07:37:37.878Z,101169.47
2024-03-04T07:40:05.242Z,101170.88
2024-03-04T07:42:32.163Z,101169.03
2024-03-04T07:44:58.766Z,101174.22
2024-03-04T07:47:25.688Z,101180.31
2024-03-04T07:49:52.274Z,101179.22
2024-03-04T07:52:18.884Z,101179.72
2024-03-04T07:54:45.388Z,101181.94
2024-03-04T07:57:19.808Z,101189.59
2024-03-04T07:59:49.790Z,101189.22
2024-03-04T08:02:16.360Z,101190.00
2024-03-04T08:04:47.152Z,101190.06
2024-03-04T08:07:14.023Z,101194.84
2024-03-04T08:09:41.104Z,101200.66
2024-03-04T08:12:09.372Z,101197.34
2024-03-04T08:14:37.945Z,101199.56
2024-03-04T08:17:05.134Z,101201.91
2024-03-04T08:19:31.960Z,101199.56
2024-03-04T08:21:58.568Z,101203.03
2024-03-04T08:24:25.780Z,101202.94
2024-03-04T08:26:52.957Z,101200.31
2024-03-04T08:29:20.321Z,101211.91
2024-03-04T08:31:48.569Z,101217.78
2024-03-04T08:34:15.899Z,101215.91
2024-03-04T08:36:42.449Z,101212.00
2024-03-04T08:39:10.190Z,101209.22
2024-03-04T08:41:46.664Z,101219.88
2024-03-04T08:44:16.890Z,101222.28
2024-03-04T08:46:44.686Z,101221.81
2024-03-04T08:49:11.559Z,101230.94
2024-03-04T08:51:40.251Z,101232.69
2024-03-04T08:54:06.883Z,101230.31
2024-03-04T08:56:33.658Z,101229.38
2024-03-04T08:59:01.019Z,101226.38
2024-03-04T09:01:28.291Z,101231.09
2024-03-04T09:03:59.368Z,101224.34
2024-03-04T09:06:27.226Z,101232.97
2024-03-04T09:08:53.661Z,101227.47
2024-03-04T09:11:23.956Z,101226.09
2024-03-04T09:13:50.701Z,101220.84
2024-03-04T09:16:17.499Z,101219.94
2024-03-04T09:18:44.186Z,101223.97
2024-03-04T09:21:11.501Z,101226.81
2024-03-04T09:23:39.761Z,101228.69
2024-03-04T09:26:12.673Z,101223.72
2024-03-04T09:28:39.144Z,101225.75
2024-03-04T09:31:06.417Z,101220.72
2024-03-04T09:33:33.251Z,101220.56
2024-03-04T09:36:01.574Z,101213.84
2024-03-04T09:38:28.354Z,101217.75
2024-03-04T09:40:57.313Z,101221.50
2024-03-04T09:43:29.656Z,101220.22
2024-03-04T09:46:01.064Z,101216.41
2024-03-04T09:48:28.716Z,101211.84
2024-03-04T09:50:57.063Z,101214.91
2024-03-04T09:53:23.743Z,101215.97
2024-03-04T09:55:50.659Z,101221.28
2024-03-04T09:58:17.644Z,101217.84
2024-03-04T10:00:44.756Z,101223.75
2024-03-04T10:03:12.363Z,101224.19
2024-03-04T10:05:40.839Z,101225.53
2024-03-04T10:08:11.612Z,101227.41
2024-03-04T10:10:38.823Z,101231.56
2024-03-04T10:13:11.915Z,101228.50
2024-03-04T10:15:40.406Z,101235.75
2024-03-04T10:18:13.735Z,101244.50
2024-03-04T10:20:41.248Z,101246.19
2024-03-04T10:23:08.088Z,101245.06
2024-03-04T10:25:35.309Z,101242.78
2024-03-04T10:28:08.261Z,101256.41
2024-03-04T10:30:34.979Z,101248.56
2024-03-04T10:33:06.848Z,101253.94
2024-03-04T10:35:33.458Z,101264.16
2024-03-04T10:38:02.939Z,101256.78
2024-03-04T10:40:32.071Z,101261.28
2024-03-04T10:43:02.137Z,101265.53
2024-03-04T10:45:35.232Z,101272.56
2024-03-04T10:48:03.115Z,101282.78
2024-03-04T10:50:29.903Z,101281.84
2024-03-04T10:52:59.627Z,101288.72
2024-03-04T10:55:29.320Z,101276.06
2024-03-04T10:58:01.621Z,101275.72
2024-03-04T11:00:31.066Z,101270.56
2024-03-04T11:03:00.494Z,101271.03
2024-03-04T11:05:31.322Z,101266.94
2024-03-04T11:08:19.776Z,101264.91
2024-03-04T11:10:48.489Z,101275.41
2024-03-04T11:13:26.068Z,101283.72
2024-03-04T11:16:04.180Z,101269.88
2024-03-04T11:18:49.958Z,101267.63
2024-03-04T11:21:19.077Z,101255.16
2024-03-04T11:23:47.245Z,101250.50
2024-03-04T11:26:15.315Z,101260.28
2024-03-04T11:28:43.153Z,101249.72
2024-03-04T11:31:23.152Z,101256.50
2024-03-04T11:34:06.657Z,101248.94
2024-03-04T11:36:34.104Z,101245.56
2024-03-04T11:39:05.112Z,101246.69
2024-03-04T11:41:52.962Z,101247.75
2024-03-04T11:44:20.765Z,101250.91
2024-03-04T11:46:48.218Z,101246.75
2024-03-04T11:49:31.006Z,101243.28
2024-03-04T11:52:01.899Z,101245.94
2024-03-04T11:54:37.739Z,101247.16
2024-03-04T11:57:06.024Z,101261.22
2024-03-04T11:59:36.358Z,101258.91
2024-03-04T12:02:12.780Z,101256.66
2024-03-04T12:04:42.862Z,101248.94
2024-03-04T12:07:09.579Z,101252.00
2024-03-04T12:09:50.429Z,101243.53
2024-03-04T12:12:22.566Z,101253.56
2024-03-04T12:14:49.191Z,101248.88
2024-03-04T12:17:16.200Z,101250.44
2024-03-04T12:19:56.738Z,101258.00
2024-03-04T12:22:30.145Z,101254.47
2024-03-04T12:25:05.804Z,101250.72
2024-03-04T12:27:33.802Z,101258.59
2024-03-04T12:30:16.324Z,101263.53
2024-03-04T12:32:44.021Z,101264.06
2024-03-04T12:35:17.771Z,101259.59
2024-03-04T12:37:47.251Z,101264.84
2024-03-04T12:40:14.443Z,101255.94
2024-03-04T12:42:41.039Z,101258.91
2024-03-04T12:45:08.354Z,101255.28
2024-03-04T12:47:39.629Z,101250.03
2024-03-04T12:50:07.099Z,101262.00
2024-03-04T12:52:37.971Z,101263.97
2024-03-04T12:55:13.604Z,101260.00
2024-03-04T12:57:40.187Z,101254.66
2024-03-04T13:00:13.851Z,101255.94
2024-03-04T13:02:49.563Z,101255.00
2024-03-04T13:05:17.055Z,101255.97
2024-03-04T13:07:48.161Z,101255.56
2024-03-04T13:10:16.848Z,101240.09
2024-03-04T13:12:45.552Z,101246.78
2024-03-04T13:15:12.980Z,101239.16
2024-03-04T13:17:43.108Z,101240.63
2024-03-04T13:20:10.328Z,101237.63
2024-03-04T13:22:41.807Z,101238.13
2024-03-04T13:25:09.363Z,101230.63
2024-03-04T13:27:36.946Z,101230.22
2024-03-04T13:30:04.522Z,101231.81
2024-03-04T13:32:32.026Z,101233.09
2024-03-04T13:34:59.125Z,101228.84
2024-03-04T13:37:25.716Z,101232.72
2024-03-04T13:39:52.240Z,101230.41
2024-03-04T13:42:19.730Z,101227.13
2024-03-04T13:44:46.508Z,101226.03
2024-03-04T13:47:13.004Z,101227.44
2024-03-04T13:49:41.504Z,101226.38
2024-03-04T13:52:08.163Z,101221.69
2024-03-04T13:54:35.416Z,101227.13
2024-03-04T13:57:02.553Z,101225.06
2024-03-04T13:59:31.773Z,101224.06
2024-03-04T14:01:59.964Z,101222.25
2024-03-04T14:04:27.762Z,101219.69
2024-03-04T14:06:57.043Z,101215.03
2024-03-04T14:09:23.931Z,101221.34
2024-03-04T14:11:51.289Z,101221.06
2024-03-04T14:14:18.934Z,101217.44
2024-03-04T14:16:46.473Z,101217.53
2024-03-04T14:19:13.169Z,101207.28
2024-03-04T14:21:39.693Z,101219.25
2024-03-04T14:24:06.436Z,101223.19
2024-03-04T14:26:33.093Z,101224.47
2024-03-04T14:29:02.904Z,101223.38
2024-03-04T14:31:31.712Z,101219.47
2024-03-04T14:33:58.250Z,101223.53
2024-03-04T14:36:24.770Z,101217.44
2024-03-04T14:38:51.648Z,101212.75
2024-03-04T14:41:20.085Z,101216.97
2024-03-04T14:43:49.298Z,101214.63
2024-03-04T14:46:15.861Z,101209.94
2024-03-04T14:48:43.065Z,101211.06
2024-03-04T14:51:11.319Z,101217.00
2024-03-04T14:53:37.754Z,101219.34
2024-03-04T14:56:04.590Z,101216.22
2024-03-04T14:58:31.039Z,101216.22
2024-03-04T15:00:57.551Z,101217.63
2024-03-04T15:03:25.454Z,101222.34
2024-03-04T15:05:51.970Z,101218.28
2024-03-04T15:08:18.508Z,101214.81
2024-03-04T15:10:45.361Z,101220.94
2024-03-04T15:13:15.687Z,101217.78
2024-03-04T15:15:43.022Z,101216.22
2024-03-04T15:18:17.903Z,101217.78
2024-03-04T15:20:48.642Z,101216.22
2024-03-04T15:23:15.457Z,101222.66
2024-03-04T15:25:42.527Z,101216.84
2024-03-04T15:28:11.156Z,101223.44
2024-03-04T15:30:37.635Z,101213.41
2024-03-04T15:33:04.446Z,101219.34
2024-03-04T15:35:31.149Z,101223.59
2024-03-04T15:37:57.628Z,101217.78
2024-03-04T15:40:24.146Z,101211.22
2024-03-04T15:42:50.729Z,101224.84
2024-03-04T15:45:17.305Z,101223.09
2024-03-04T15:47:43.779Z,101221.06
2024-03-04T15:50:16.870Z,101232.34
2024-03-04T15:52:44.579Z,101229.50
2024-03-04T15:55:18.383Z,101225.28
2024-03-04T15:57:50.774Z,101227.44
2024-03-04T16:00:18.043Z,101231.84
2024-03-04T16:02:45.763Z,101221.03
2024-03-04T16:05:17.569Z,101224.59
2024-03-04T16:07:50.668Z,101228.69
2024-03-04T16:10:17.310Z,101223.19
2024-03-04T16:12:44.130Z,101219.44
2024-03-04T16:15:11.030Z,101224.00
2024-03-04T16:17:37.752Z,101220.41
2024-03-04T16:20:08.197Z,101221.97
2024-03-04T16:22:35.738Z,101223.84
2024-03-04T16:25:02.697Z,101227.13
2024-03-04T16:27:29.179Z,101218.03
2024-03-04T16:29:55.623Z,101225.06
2024-03-04T16:32:22.099Z,101226.63
2024-03-04T16:34:48.603Z,101225.19
2024-03-04T16:37:15.100Z,101234.88
2024-03-04T16:39:42.020Z,101233.44
2024-03-04T16:42:08.506Z,101238.91
2024-03-04T16:44:35.101Z,101241.09
2024-03-04T16:47:01.562Z,101239.91
2024-03-04T16:49:28.056Z,101242.22
2024-03-04T16:51:54.816Z,101239.50
2024-03-04T16:54:21.600Z,101246.06
2024-03-04T16:56:48.506Z,101244.16
2024-03-04T16:59:16.464Z,101240.63
2024-03-04T17:01:46.205Z,101247.00
2024-03-04T17:04:15.135Z,101246.34
2024-03-04T17:06:41.608Z,101249.72
2024-03-04T17:09:08.141Z,101254.16
2024-03-04T17:11:35.111Z,101265.50
2024-03-04T17:14:01.697Z,101259.34
2024-03-04T17:16:28.188Z,101262.22
2024-03-04T17:18:57.272Z,101259.50
2024-03-04T17:21:23.931Z,101265.69
2024-03-04T17:23:50.452Z,101265.63
2024-03-04T17:26:17.109Z,101257.56
2024-03-04T17:28:43.621Z,101270.53
2024-03-04T17:31:10.969Z,101269.19
2024-03-04T17:33:37.466Z,101269.06
2024-03-04T17:36:05.092Z,101276.84
2024-03-04T17:38:31.663Z,101278.28
2024-03-04T17:40:58.173Z,101276.03
2024-03-04T17:43:24.752Z,101280.91
2024-03-04T17:45:51.447Z,101286.59
2024-03-04T17:48:18.118Z,101280.88
2024-03-04T17:50:44.583Z,101288.41
2024-03-04T17:53:11.107Z,101281.94
2024-03-04T17:55:37.901Z,101288.88
2024-03-04T17:58:05.482Z,101285.53
2024-03-04T18:00:32.019Z,101292.75
2024-03-04T18:02:58.674Z,101285.50
2024-03-04T18:05:25.206Z,101296.94
2024-03-04T18:07:51.963Z,101293.28
2024-03-04T18:10:18.478Z,101293.38
2024-03-04T18:12:44.953Z,101294.22
2024-03-04T18:15:13.528Z,101296.16
2024-03-04T18:17:40.712Z,101298.88
2024-03-04T18:20:08.061Z,101302.91
2024-03-04T18:22:34.652Z,101297.66
2024-03-04T18:25:01.511Z,101298.03
2024-03-04T18:27:28.410Z,101301.53
2024-03-04T18:29:54.885Z,101301.09
2024-03-04T18:32:21.332Z,101304.31
2024-03-04T18:34:51.478Z,101306.44
2024-03-04T18:37:17.990Z,101302.00
2024-03-04T18:39:45.643Z,101305.50
2024-03-04T18:42:12.859Z,101310.31
2024-03-04T18:44:45.664Z,101311.13
2024-03-04T18:47:12.660Z,101313.06
2024-03-04T18:49:39.160Z,101316.78
2024-03-04T18:52:05.779Z,101314.69
2024-03-04T18:54:32.386Z,101311.84
2024-03-04T18:56:59.110Z,101310.53
2024-03-04T18:59:27.507Z,101318.81
2024-03-04T19:01:54.108Z,101315.66
2024-03-04T19:04:21.739Z,101323.38
2024-03-04T19:06:48.270Z,101321.06
2024-03-04T19:09:15.144Z,101326.41
2024-03-04T19:11:41.702Z,101324.59
2024-03-04T19:14:09.301Z,101325.94
2024-03-04T19:16:35.995Z,101324.09
2024-03-04T19:19:06.739Z,101323.84
2024-03-04T19:21:33.699Z,101332.06
2024-03-04T19:24:00.225Z,101329.19
2024-03-04T19:26:26.754Z,101331.59
2024-03-04T19:28:53.348Z,101334.00
2024-03-04T19:31:23.661Z,101330.38
2024-03-04T19:33:53.542Z,101333.41
2024-03-04T19:36:21.227Z,101336.13
2024-03-04T19:38:48.037Z,101339.84
2024-03-04T19:41:25.019Z,101337.25
2024-03-04T19:43:52.329Z,101340.72
2024-03-04T19:46:24.501Z,101326.97
2024-03-04T19:48:52.121Z,101336.47
2024-03-04T19:51:22.565Z,101338.31
2024-03-04T19:53:50.408Z,101336.50
2024-03-04T19:56:17.431Z,101335.72
2024-03-04T19:58:47.397Z,101334.72
2024-03-04T20:01:14.356Z,101329.69
2024-03-04T20:03:44.279Z,101340.53
2024-03-04T20:06:12.546Z,101337.38
2024-03-04T20:08:39.265Z,101336.84
2024-03-04T20:11:13.280Z,101334.53
2024-03-04T20:13:44.286Z,101337.97
2024-03-04T20:16:13.717Z,101333.53
2024-03-04T20:18:40.282Z,101336.44
2024-03-04T20:21:10.127Z,101336.97
2024-03-04T20:23:37.553Z,101336.44
2024-03-04T20:26:06.559Z,101340.13
2024-03-04T20:28:34.593Z,101344.91
2024-03-04T20:31:03.049Z,101346.50
2024-03-04T20:33:30.349Z,101346.31
2024-03-04T20:35:56.988Z,101348.19
2024-03-04T20:38:23.657Z,101339.75
2024-03-04T20:40:50.778Z,101343.75
2024-03-04T20:43:17.688Z,101343.50
2024-03-04T20:45:44.379Z,101349.09
2024-03-04T20:48:11.290Z,101352.28
2024-03-04T20:50:39.351Z,101348.09
2024-03-04T20:53:06.145Z,101344.91
2024-03-04T20:55:36.451Z,101344.69
2024-03-04T20:58:03.368Z,101338.88
2024-03-04T21:00:29.874Z,101348.09
2024-03-04T21:02:56.388Z,101345.22
2024-03-04T21:05:24.473Z,101351.81
2024-03-04T21:07:53.142Z,101352.09
2024-03-04T21:10:22.817Z,101353.66
2024-03-04T21:12:51.387Z,101358.66
2024-03-04T21:15:19.780Z,101355.25
2024-03-04T21:17:48.752Z,101351.56
2024-03-04T21:20:16.372Z,101351.81
2024-03-04T21:22:45.323Z,101356.03
2024-03-04T21:25:15.410Z,101343.16
2024-03-04T21:27:42.412Z,101348.94
2024-03-04T21:30:10.867Z,101349.47
2024-03-04T21:32:38.546Z,101347.63
2024-03-04T21:35:09.318Z,101338.66
2024-03-04T21:37:40.515Z,101340.50
2024-03-04T21:40:11.934Z,101352.13
2024-03-04T21:42:40.089Z,101336.31
2024-03-04T21:45:10.111Z,101340.28
2024-03-04T21:47:36.936Z,101346.84
2024-03-04T21:50:05.380Z,101344.22
2024-03-04T21:52:33.108Z,101346.84
2024-03-04T21:54:59.885Z,101338.16
2024-03-04T21:57:27.476Z,101342.91
2024-03-04T21:59:54.166Z,101331.06
2024-03-04T22:02:20.830Z,101340.00
2024-03-04T22:04:48.537Z,101339.50
2024-03-04T22:07:15.169Z,101339.78
2024-03-04T22:09:41.626Z,101336.59
2024-03-04T22:12:08.614Z,101336.59
2024-03-04T22:14:37.280Z,101333.16
2024-03-04T22:17:06.509Z,101339.75
2024-03-04T22:19:33.775Z,101344.25
2024-03-04T22:22:00.303Z,101345.78
2024-03-04T22:24:27.134Z,101352.09
2024-03-04T22:26:55.050Z,101355.78
2024-03-04T22:29:21.622Z,101352.84
2024-03-04T22:31:48.091Z,101355.22
2024-03-04T22:34:16.682Z,101358.38
2024-03-04T22:36:44.234Z,101362.59
2024-03-04T22:39:10.860Z,101354.41
2024-03-04T22:41:47.639Z,101363.84
2024-03-04T22:44:16.238Z,101354.69
2024-03-04T22:46:43.428Z,101360.19
2024-03-04T22:49:10.700Z,101353.91
2024-03-04T22:51:37.589Z,101350.47
2024-03-04T22:54:04.177Z,101347.81
2024-03-04T22:56:30.826Z,101346.00
2024-03-04T22:58:59.266Z,101348.34
2024-03-04T23:01:32.284Z,101345.72
2024-03-04T23:03:59.382Z,101353.31
2024-03-04T23:06:26.197Z,101345.41
2024-03-04T23:08:52.886Z,101364.63
2024-03-04T23:11:20.136Z,101351.50
2024-03-04T23:13:46.892Z,101358.81
2024-03-04T23:16:16.889Z,101356.47
2024-03-04T23:18:43.500Z,101355.13
2024-03-04T23:21:11.921Z,101359.03
2024-03-04T23:23:38.936Z,101355.09
2024-03-04T23:26:06.406Z,101366.63
2024-03-04T23:28:33.566Z,101363.44
2024-03-04T23:31:00.123Z,101357.38
2024-03-04T23:33:26.790Z,101358.94
2024-03-04T23:35:56.125Z,101365.50
2024-03-04T23:38:25.322Z,101363.38
2024-03-04T23:40:52.951Z,101359.72
2024-03-04T23:43:19.622Z,101365.00
2024-03-04T23:45:47.292Z,101357.34
2024-03-04T23:48:14.255Z,101354.44
2024-03-04T23:50:40.742Z,101358.63
2024-03-04T23:53:07.320Z,101355.44
2024-03-04T23:55:34.972Z,101359.91
2024-03-04T23:58:01.467Z,101352.56
